sensor_id;sensor_type;location;lat;lon;timestamp;temperature;humidity
3896;DHT22;1963;48.804;8.358;2022-12-07T00:01:19;5.40;99.90
3896;DHT22;1963;48.804;8.358;2022-12-07T00:03:49;5.40;99.90
3896;DHT22;1963;48.804;8.358;2022-12-07T00:06:19;5.40;99.90
3896;DHT22;1963;48.804;8.358;2022-12-07T00:08:47;5.40;99.90
3896;DHT22;1963;48.804;8.358;2022-12-07T00:11:18;5.30;99.90
3896;DHT22;1963;48.804;8.358;2022-12-07T00:13:53;5.30;99.90
3896;DHT22;1963;48.804;8.358;2022-12-07T00:16:23;5.30;99.90
3896;DHT22;1963;48.804;8.358;2022-12-07T00:18:52;5.30;99.90
3896;DHT22;1963;48.804;8.358;2022-12-07T00:21:22;5.30;99.90
3896;DHT22;1963;48.804;8.358;2022-12-07T00:23:51;5.30;99.90
3896;DHT22;1963;48.804;8.358;2022-12-07T00:26:23;5.30;99.90
3896;DHT22;1963;48.804;8.358;2022-12-07T00:28:53;5.30;99.90
3896;DHT22;1963;48.804;8.358;2022-12-07T00:31:24;5.30;99.90
3896;DHT22;1963;48.804;8.358;2022-12-07T00:33:53;5.30;99.90
3896;DHT22;1963;48.804;8.358;2022-12-07T00:36:23;5.30;99.90
3896;DHT22;1963;48.804;8.358;2022-12-07T00:38:53;5.30;99.90
3896;DHT22;1963;48.804;8.358;2022-12-07T00:41:24;5.30;99.90
3896;DHT22;1963;48.804;8.358;2022-12-07T00:43:52;5.30;99.90
3896;DHT22;1963;48.804;8.358;2022-12-07T00:46:22;5.30;99.90
3896;DHT22;1963;48.804;8.358;2022-12-07T00:48:51;5.30;99.90
3896;DHT22;1963;48.804;8.358;2022-12-07T00:51:21;5.30;99.90
3896;DHT22;1963;48.804;8.358;2022-12-07T00:53:49;5.40;99.90
3896;DHT22;1963;48.804;8.358;2022-12-07T00:56:23;5.40;99.90
3896;DHT22;1963;48.804;8.358;2022-12-07T00:58:52;5.40;99.90
3896;DHT22;1963;48.804;8.358;2022-12-07T01:01:21;5.40;99.90
3896;DHT22;1963;48.804;8.358;2022-12-07T01:03:49;5.40;99.90
3896;DHT22;1963;48.804;8.358;2022-12-07T01:06:19;5.40;99.90
3896;DHT22;1963;48.804;8.358;2022-12-07T01:08:47;5.40;99.90
3896;DHT22;1963;48.804;8.358;2022-12-07T01:11:17;5.40;99.90
3896;DHT22;1963;48.804;8.358;2022-12-07T01:13:49;5.40;99.90
3896;DHT22;1963;48.804;8.358;2022-12-07T01:16:17;5.30;99.90
3896;DHT22;1963;48.804;8.358;2022-12-07T01:18:47;5.30;99.90
3896;DHT22;1963;48.804;8.358;2022-12-07T01:21:18;5.30;99.90
3896;DHT22;1963;48.804;8.358;2022-12-07T01:23:47;5.20;99.90
3896;DHT22;1963;48.804;8.358;2022-12-07T01:26:18;5.20;99.90
3896;DHT22;1963;48.804;8.358;2022-12-07T01:28:48;5.20;99.90
3896;DHT22;1963;48.804;8.358;2022-12-07T01:31:18;5.20;99.90
3896;DHT22;1963;48.804;8.358;2022-12-07T01:33:52;5.20;99.90
3896;DHT22;1963;48.804;8.358;2022-12-07T01:36:21;5.10;99.90
3896;DHT22;1963;48.804;8.358;2022-12-07T01:38:51;5.10;99.90
3896;DHT22;1963;48.804;8.358;2022-12-07T01:41:21;5.10;99.90
3896;DHT22;1963;48.804;8.358;2022-12-07T01:44:13;5.10;99.90
3896;DHT22;1963;48.804;8.358;2022-12-07T01:46:43;5.00;99.90
3896;DHT22;1963;48.804;8.358;2022-12-07T01:49:16;5.00;99.90
3896;DHT22;1963;48.804;8.358;2022-12-07T01:51:46;5.00;99.90
3896;DHT22;1963;48.804;8.358;2022-12-07T01:54:15;5.00;99.90
3896;DHT22;1963;48.804;8.358;2022-12-07T01:56:48;5.00;99.90
3896;DHT22;1963;48.804;8.358;2022-12-07T01:59:19;5.00;99.90
3896;DHT22;1963;48.804;8.358;2022-12-07T02:01:48;5.00;99.90
3896;DHT22;1963;48.804;8.358;2022-12-07T02:04:16;4.90;99.90
3896;DHT22;1963;48.804;8.358;2022-12-07T02:06:45;4.90;99.90
3896;DHT22;1963;48.804;8.358;2022-12-07T02:09:14;4.80;99.90
3896;DHT22;1963;48.804;8.358;2022-12-07T02:11:42;4.80;99.90
3896;DHT22;1963;48.804;8.358;2022-12-07T02:14:10;4.70;99.90
3896;DHT22;1963;48.804;8.358;2022-12-07T02:16:46;4.70;99.90
3896;DHT22;1963;48.804;8.358;2022-12-07T02:22:38;4.70;99.90
3896;DHT22;1963;48.804;8.358;2022-12-07T02:25:17;4.70;99.90
3896;DHT22;1963;48.804;8.358;2022-12-07T02:27:47;4.70;99.90
3896;DHT22;1963;48.804;8.358;2022-12-07T02:30:20;4.70;99.90
3896;DHT22;1963;48.804;8.358;2022-12-07T02:32:54;4.70;99.90
3896;DHT22;1963;48.804;8.358;2022-12-07T02:35:29;4.70;99.90
3896;DHT22;1963;48.804;8.358;2022-12-07T02:38:02;4.70;99.90
3896;DHT22;1963;48.804;8.358;2022-12-07T02:40:34;4.70;99.90
3896;DHT22;1963;48.804;8.358;2022-12-07T02:43:07;4.60;99.90
3896;DHT22;1963;48.804;8.358;2022-12-07T02:45:39;4.60;99.90
3896;DHT22;1963;48.804;8.358;2022-12-07T02:48:10;4.60;99.90
3896;DHT22;1963;48.804;8.358;2022-12-07T02:50:44;4.60;99.90
3896;DHT22;1963;48.804;8.358;2022-12-07T02:53:30;4.50;99.90
3896;DHT22;1963;48.804;8.358;2022-12-07T02:55:59;4.50;99.90
3896;DHT22;1963;48.804;8.358;2022-12-07T02:58:38;4.40;99.90
3896;DHT22;1963;48.804;8.358;2022-12-07T03:01:17;4.40;99.90
3896;DHT22;1963;48.804;8.358;2022-12-07T03:03:58;4.30;99.90
3896;DHT22;1963;48.804;8.358;2022-12-07T03:06:30;4.30;99.90
3896;DHT22;1963;48.804;8.358;2022-12-07T03:09:07;4.20;99.90
3896;DHT22;1963;48.804;8.358;2022-12-07T03:11:46;4.20;99.90
3896;DHT22;1963;48.804;8.358;2022-12-07T03:14:18;4.10;99.90
3896;DHT22;1963;48.804;8.358;2022-12-07T03:16:53;4.10;99.90
3896;DHT22;1963;48.804;8.358;2022-12-07T03:19:26;4.10;99.90
3896;DHT22;1963;48.804;8.358;2022-12-07T03:21:57;4.10;99.90
3896;DHT22;1963;48.804;8.358;2022-12-07T03:24:29;4.00;99.90
3896;DHT22;1963;48.804;8.358;2022-12-07T03:27:03;4.00;99.90
3896;DHT22;1963;48.804;8.358;2022-12-07T03:29:34;4.00;99.90
3896;DHT22;1963;48.804;8.358;2022-12-07T03:32:07;4.00;99.90
3896;DHT22;1963;48.804;8.358;2022-12-07T03:40:48;3.90;99.90
3896;DHT22;1963;48.804;8.358;2022-12-07T03:43:18;3.80;99.90
3896;DHT22;1963;48.804;8.358;2022-12-07T03:45:54;3.80;99.90
3896;DHT22;1963;48.804;8.358;2022-12-07T03:48:30;3.80;99.90
3896;DHT22;1963;48.804;8.358;2022-12-07T03:51:04;3.90;99.90
3896;DHT22;1963;48.804;8.358;2022-12-07T03:53:37;3.90;99.90
3896;DHT22;1963;48.804;8.358;2022-12-07T03:56:09;3.90;99.90
3896;DHT22;1963;48.804;8.358;2022-12-07T03:58:38;3.90;99.90
3896;DHT22;1963;48.804;8.358;2022-12-07T04:01:06;4.00;99.90
3896;DHT22;1963;48.804;8.358;2022-12-07T04:03:34;3.90;99.90
3896;DHT22;1963;48.804;8.358;2022-12-07T04:06:02;3.90;99.90
3896;DHT22;1963;48.804;8.358;2022-12-07T04:08:30;3.90;99.90
3896;DHT22;1963;48.804;8.358;2022-12-07T04:10:58;3.90;99.90
3896;DHT22;1963;48.804;8.358;2022-12-07T04:13:27;3.90;99.90
3896;DHT22;1963;48.804;8.358;2022-12-07T04:15:55;3.90;99.90
3896;DHT22;1963;48.804;8.358;2022-12-07T04:18:23;3.80;99.90
3896;DHT22;1963;48.804;8.358;2022-12-07T04:20:51;3.80;99.90
3896;DHT22;1963;48.804;8.358;2022-12-07T04:23:19;3.70;99.90
3896;DHT22;1963;48.804;8.358;2022-12-07T04:25:48;3.60;99.90
3896;DHT22;1963;48.804;8.358;2022-12-07T04:28:16;3.50;99.90
3896;DHT22;1963;48.804;8.358;2022-12-07T04:30:45;3.50;99.90
3896;DHT22;1963;48.804;8.358;2022-12-07T04:33:13;3.40;99.90
3896;DHT22;1963;48.804;8.358;2022-12-07T04:35:42;3.20;99.90
3896;DHT22;1963;48.804;8.358;2022-12-07T04:38:10;3.00;99.90
3896;DHT22;1963;48.804;8.358;2022-12-07T04:40:38;3.00;99.90
3896;DHT22;1963;48.804;8.358;2022-12-07T04:43:05;2.80;99.90
3896;DHT22;1963;48.804;8.358;2022-12-07T04:45:33;2.70;99.90
3896;DHT22;1963;48.804;8.358;2022-12-07T04:48:03;2.70;99.90
3896;DHT22;1963;48.804;8.358;2022-12-07T04:50:31;2.60;99.90
3896;DHT22;1963;48.804;8.358;2022-12-07T04:52:59;2.60;99.90
3896;DHT22;1963;48.804;8.358;2022-12-07T04:55:27;2.70;99.90
3896;DHT22;1963;48.804;8.358;2022-12-07T04:57:56;2.70;99.90
3896;DHT22;1963;48.804;8.358;2022-12-07T05:00:24;2.70;99.90
3896;DHT22;1963;48.804;8.358;2022-12-07T05:02:51;2.70;99.90
3896;DHT22;1963;48.804;8.358;2022-12-07T05:05:21;2.70;99.90
3896;DHT22;1963;48.804;8.358;2022-12-07T05:07:49;2.70;99.90
3896;DHT22;1963;48.804;8.358;2022-12-07T05:10:17;2.60;99.90
3896;DHT22;1963;48.804;8.358;2022-12-07T05:12:45;2.70;99.90
3896;DHT22;1963;48.804;8.358;2022-12-07T05:15:13;2.70;99.90
3896;DHT22;1963;48.804;8.358;2022-12-07T05:17:41;2.80;99.90
3896;DHT22;1963;48.804;8.358;2022-12-07T05:20:10;2.70;99.90
3896;DHT22;1963;48.804;8.358;2022-12-07T05:22:39;2.70;99.90
3896;DHT22;1963;48.804;8.358;2022-12-07T05:25:09;2.70;99.90
3896;DHT22;1963;48.804;8.358;2022-12-07T05:27:37;2.70;99.90
3896;DHT22;1963;48.804;8.358;2022-12-07T05:30:06;2.70;99.90
3896;DHT22;1963;48.804;8.358;2022-12-07T05:32:34;2.70;99.90
3896;DHT22;1963;48.804;8.358;2022-12-07T05:35:02;2.70;99.90
3896;DHT22;1963;48.804;8.358;2022-12-07T05:37:30;2.70;99.90
3896;DHT22;1963;48.804;8.358;2022-12-07T05:40:00;2.80;99.90
3896;DHT22;1963;48.804;8.358;2022-12-07T05:42:28;2.80;99.90
3896;DHT22;1963;48.804;8.358;2022-12-07T05:44:56;2.80;99.90
3896;DHT22;1963;48.804;8.358;2022-12-07T05:47:24;2.80;99.90
3896;DHT22;1963;48.804;8.358;2022-12-07T05:49:52;2.80;99.90
3896;DHT22;1963;48.804;8.358;2022-12-07T05:52:20;2.80;99.90
3896;DHT22;1963;48.804;8.358;2022-12-07T05:54:48;2.80;99.90
3896;DHT22;1963;48.804;8.358;2022-12-07T05:57:17;2.80;99.90
3896;DHT22;1963;48.804;8.358;2022-12-07T05:59:45;2.90;99.90
3896;DHT22;1963;48.804;8.358;2022-12-07T06:02:14;2.90;99.90
3896;DHT22;1963;48.804;8.358;2022-12-07T06:04:44;2.90;99.90
3896;DHT22;1963;48.804;8.358;2022-12-07T06:07:14;2.90;99.90
3896;DHT22;1963;48.804;8.358;2022-12-07T06:09:42;2.90;99.90
3896;DHT22;1963;48.804;8.358;2022-12-07T06:12:11;2.90;99.90
3896;DHT22;1963;48.804;8.358;2022-12-07T06:14:58;3.00;99.90
3896;DHT22;1963;48.804;8.358;2022-12-07T06:17:26;3.00;99.90
3896;DHT22;1963;48.804;8.358;2022-12-07T06:19:54;3.00;99.90
3896;DHT22;1963;48.804;8.358;2022-12-07T06:22:22;3.00;99.90
3896;DHT22;1963;48.804;8.358;2022-12-07T06:24:50;3.00;99.90
3896;DHT22;1963;48.804;8.358;2022-12-07T06:27:17;3.00;99.90
3896;DHT22;1963;48.804;8.358;2022-12-07T06:29:45;3.10;99.90
3896;DHT22;1963;48.804;8.358;2022-12-07T06:32:15;3.10;99.90
3896;DHT22;1963;48.804;8.358;2022-12-07T06:34:43;3.20;99.90
3896;DHT22;1963;48.804;8.358;2022-12-07T06:37:11;3.10;99.90
3896;DHT22;1963;48.804;8.358;2022-12-07T06:39:39;3.10;99.90
3896;DHT22;1963;48.804;8.358;2022-12-07T06:42:06;3.20;99.90
3896;DHT22;1963;48.804;8.358;2022-12-07T06:44:34;3.20;99.90
3896;DHT22;1963;48.804;8.358;2022-12-07T06:47:02;3.20;99.90
3896;DHT22;1963;48.804;8.358;2022-12-07T06:49:52;3.20;99.90
3896;DHT22;1963;48.804;8.358;2022-12-07T06:52:20;3.20;99.90
3896;DHT22;1963;48.804;8.358;2022-12-07T06:54:48;3.20;99.90
3896;DHT22;1963;48.804;8.358;2022-12-07T06:57:16;3.10;99.90
3896;DHT22;1963;48.804;8.358;2022-12-07T06:59:43;3.20;99.90
3896;DHT22;1963;48.804;8.358;2022-12-07T07:02:11;3.10;99.90
3896;DHT22;1963;48.804;8.358;2022-12-07T07:04:40;3.10;99.90
3896;DHT22;1963;48.804;8.358;2022-12-07T07:07:09;3.10;99.90
3896;DHT22;1963;48.804;8.358;2022-12-07T07:09:37;3.10;99.90
3896;DHT22;1963;48.804;8.358;2022-12-07T07:12:05;3.10;99.90
3896;DHT22;1963;48.804;8.358;2022-12-07T07:14:33;3.10;99.90
3896;DHT22;1963;48.804;8.358;2022-12-07T07:17:01;3.20;99.90
3896;DHT22;1963;48.804;8.358;2022-12-07T07:19:30;3.10;99.90
3896;DHT22;1963;48.804;8.358;2022-12-07T07:21:58;3.20;99.90
3896;DHT22;1963;48.804;8.358;2022-12-07T07:24:27;3.20;99.90
3896;DHT22;1963;48.804;8.358;2022-12-07T07:26:55;3.20;99.90
3896;DHT22;1963;48.804;8.358;2022-12-07T07:29:23;3.20;99.90
3896;DHT22;1963;48.804;8.358;2022-12-07T07:31:51;3.20;99.90
3896;DHT22;1963;48.804;8.358;2022-12-07T07:34:19;3.20;99.90
3896;DHT22;1963;48.804;8.358;2022-12-07T07:36:47;3.30;99.90
3896;DHT22;1963;48.804;8.358;2022-12-07T07:39:15;3.30;99.90
3896;DHT22;1963;48.804;8.358;2022-12-07T07:41:46;3.30;99.90
3896;DHT22;1963;48.804;8.358;2022-12-07T07:44:14;3.30;99.90
3896;DHT22;1963;48.804;8.358;2022-12-07T07:46:42;3.30;99.90
3896;DHT22;1963;48.804;8.358;2022-12-07T07:49:10;3.30;99.90
3896;DHT22;1963;48.804;8.358;2022-12-07T07:51:38;3.30;99.90
3896;DHT22;1963;48.804;8.358;2022-12-07T07:54:06;3.40;99.90
3896;DHT22;1963;48.804;8.358;2022-12-07T07:56:34;3.40;99.90
3896;DHT22;1963;48.804;8.358;2022-12-07T07:59:04;3.40;99.90
3896;DHT22;1963;48.804;8.358;2022-12-07T08:01:32;3.50;99.90
3896;DHT22;1963;48.804;8.358;2022-12-07T08:04:00;3.50;99.90
3896;DHT22;1963;48.804;8.358;2022-12-07T08:06:28;3.50;99.90
3896;DHT22;1963;48.804;8.358;2022-12-07T08:08:58;3.60;99.90
3896;DHT22;1963;48.804;8.358;2022-12-07T08:11:26;3.60;99.90
3896;DHT22;1963;48.804;8.358;2022-12-07T08:13:54;3.70;99.90
3896;DHT22;1963;48.804;8.358;2022-12-07T08:16:23;3.60;99.90
3896;DHT22;1963;48.804;8.358;2022-12-07T08:18:52;3.70;99.90
3896;DHT22;1963;48.804;8.358;2022-12-07T08:21:20;3.80;99.90
3896;DHT22;1963;48.804;8.358;2022-12-07T08:23:50;3.80;99.90
3896;DHT22;1963;48.804;8.358;2022-12-07T08:26:18;3.80;99.90
3896;DHT22;1963;48.804;8.358;2022-12-07T08:28:46;3.80;99.90
3896;DHT22;1963;48.804;8.358;2022-12-07T08:31:17;3.80;99.90
3896;DHT22;1963;48.804;8.358;2022-12-07T08:33:48;3.90;99.90
3896;DHT22;1963;48.804;8.358;2022-12-07T08:36:16;4.00;99.90
3896;DHT22;1963;48.804;8.358;2022-12-07T08:38:45;4.00;99.90
3896;DHT22;1963;48.804;8.358;2022-12-07T08:41:33;4.00;99.90
3896;DHT22;1963;48.804;8.358;2022-12-07T08:44:01;4.00;99.90
3896;DHT22;1963;48.804;8.358;2022-12-07T08:46:32;4.00;99.90
3896;DHT22;1963;48.804;8.358;2022-12-07T08:49:09;4.00;99.90
3896;DHT22;1963;48.804;8.358;2022-12-07T08:51:38;4.10;99.90
3896;DHT22;1963;48.804;8.358;2022-12-07T08:54:09;4.10;99.90
3896;DHT22;1963;48.804;8.358;2022-12-07T08:56:39;4.20;99.90
3896;DHT22;1963;48.804;8.358;2022-12-07T08:59:07;4.20;99.90
3896;DHT22;1963;48.804;8.358;2022-12-07T09:01:35;4.30;99.90
3896;DHT22;1963;48.804;8.358;2022-12-07T09:04:04;4.30;99.90
3896;DHT22;1963;48.804;8.358;2022-12-07T09:06:33;4.30;99.90
3896;DHT22;1963;48.804;8.358;2022-12-07T09:09:02;4.30;99.90
3896;DHT22;1963;48.804;8.358;2022-12-07T09:11:30;4.40;99.90
3896;DHT22;1963;48.804;8.358;2022-12-07T09:13:58;4.40;99.90
3896;DHT22;1963;48.804;8.358;2022-12-07T09:16:26;4.50;99.90
3896;DHT22;1963;48.804;8.358;2022-12-07T09:18:55;4.50;99.90
3896;DHT22;1963;48.804;8.358;2022-12-07T09:21:24;4.50;99.90
3896;DHT22;1963;48.804;8.358;2022-12-07T09:23:52;4.50;99.90
3896;DHT22;1963;48.804;8.358;2022-12-07T09:26:20;4.50;99.90
3896;DHT22;1963;48.804;8.358;2022-12-07T09:28:48;4.50;99.90
3896;DHT22;1963;48.804;8.358;2022-12-07T09:31:17;4.50;99.90
3896;DHT22;1963;48.804;8.358;2022-12-07T09:33:53;4.40;99.90
3896;DHT22;1963;48.804;8.358;2022-12-07T09:36:22;4.30;99.90
3896;DHT22;1963;48.804;8.358;2022-12-07T09:38:51;4.30;99.90
3896;DHT22;1963;48.804;8.358;2022-12-07T09:41:19;4.20;99.90
3896;DHT22;1963;48.804;8.358;2022-12-07T09:43:48;4.20;99.90
3896;DHT22;1963;48.804;8.358;2022-12-07T09:46:18;4.20;99.90
3896;DHT22;1963;48.804;8.358;2022-12-07T09:48:48;4.20;99.90
3896;DHT22;1963;48.804;8.358;2022-12-07T09:51:18;4.20;99.90
3896;DHT22;1963;48.804;8.358;2022-12-07T09:53:53;4.20;99.90
3896;DHT22;1963;48.804;8.358;2022-12-07T09:56:22;4.20;99.90
3896;DHT22;1963;48.804;8.358;2022-12-07T09:58:56;4.10;99.90
3896;DHT22;1963;48.804;8.358;2022-12-07T10:01:28;4.10;99.90
3896;DHT22;1963;48.804;8.358;2022-12-07T10:04:05;4.10;99.90
3896;DHT22;1963;48.804;8.358;2022-12-07T10:06:34;4.10;99.90
3896;DHT22;1963;48.804;8.358;2022-12-07T10:09:09;4.00;99.90
3896;DHT22;1963;48.804;8.358;2022-12-07T10:11:58;4.00;99.90
3896;DHT22;1963;48.804;8.358;2022-12-07T10:14:29;4.00;99.90
3896;DHT22;1963;48.804;8.358;2022-12-07T10:17:33;4.00;99.90
3896;DHT22;1963;48.804;8.358;2022-12-07T10:20:18;4.00;99.90
3896;DHT22;1963;48.804;8.358;2022-12-07T10:22:58;4.10;99.90
3896;DHT22;1963;48.804;8.358;2022-12-07T10:25:30;4.20;99.90
3896;DHT22;1963;48.804;8.358;2022-12-07T10:28:02;4.20;99.90
3896;DHT22;1963;48.804;8.358;2022-12-07T10:30:31;4.20;99.90
3896;DHT22;1963;48.804;8.358;2022-12-07T10:33:00;4.20;99.90
3896;DHT22;1963;48.804;8.358;2022-12-07T10:35:29;4.30;99.90
3896;DHT22;1963;48.804;8.358;2022-12-07T10:38:00;4.20;99.90
3896;DHT22;1963;48.804;8.358;2022-12-07T10:40:33;4.20;99.90
3896;DHT22;1963;48.804;8.358;2022-12-07T10:43:16;4.20;99.90
3896;DHT22;1963;48.804;8.358;2022-12-07T10:46:09;4.10;99.90
3896;DHT22;1963;48.804;8.358;2022-12-07T10:48:49;4.00;99.90
3896;DHT22;1963;48.804;8.358;2022-12-07T10:51:23;4.00;99.90
3896;DHT22;1963;48.804;8.358;2022-12-07T10:54:07;4.00;99.90
3896;DHT22;1963;48.804;8.358;2022-12-07T10:57:16;4.00;99.90
3896;DHT22;1963;48.804;8.358;2022-12-07T10:59:55;4.00;99.90
3896;DHT22;1963;48.804;8.358;2022-12-07T11:02:38;4.10;99.90
3896;DHT22;1963;48.804;8.358;2022-12-07T11:05:19;4.10;99.90
3896;DHT22;1963;48.804;8.358;2022-12-07T11:08:01;4.20;99.90
3896;DHT22;1963;48.804;8.358;2022-12-07T11:10:35;4.20;99.90
3896;DHT22;1963;48.804;8.358;2022-12-07T11:13:32;4.30;99.90
3896;DHT22;1963;48.804;8.358;2022-12-07T11:16:18;4.30;99.90
3896;DHT22;1963;48.804;8.358;2022-12-07T11:18:55;4.30;99.90
3896;DHT22;1963;48.804;8.358;2022-12-07T11:21:30;4.40;99.90
3896;DHT22;1963;48.804;8.358;2022-12-07T11:24:03;4.40;99.90
3896;DHT22;1963;48.804;8.358;2022-12-07T11:26:54;4.40;99.90
3896;DHT22;1963;48.804;8.358;2022-12-07T11:29:49;4.50;99.90
3896;DHT22;1963;48.804;8.358;2022-12-07T11:32:23;4.50;99.90
3896;DHT22;1963;48.804;8.358;2022-12-07T11:34:59;4.40;99.90
3896;DHT22;1963;48.804;8.358;2022-12-07T11:37:34;4.50;99.90
3896;DHT22;1963;48.804;8.358;2022-12-07T11:40:15;4.50;99.90
3896;DHT22;1963;48.804;8.358;2022-12-07T11:42:49;4.50;99.90
3896;DHT22;1963;48.804;8.358;2022-12-07T11:45:25;4.60;99.90
3896;DHT22;1963;48.804;8.358;2022-12-07T11:47:57;4.60;99.90
3896;DHT22;1963;48.804;8.358;2022-12-07T11:50:30;4.70;99.90
3896;DHT22;1963;48.804;8.358;2022-12-07T11:53:02;4.70;99.90
3896;DHT22;1963;48.804;8.358;2022-12-07T11:55:41;4.70;99.90
3896;DHT22;1963;48.804;8.358;2022-12-07T11:58:22;4.70;99.90
3896;DHT22;1963;48.804;8.358;2022-12-07T12:01:06;4.80;99.90
3896;DHT22;1963;48.804;8.358;2022-12-07T12:03:40;4.70;99.90
3896;DHT22;1963;48.804;8.358;2022-12-07T12:06:19;4.70;99.90
3896;DHT22;1963;48.804;8.358;2022-12-07T12:08:52;4.70;99.90
3896;DHT22;1963;48.804;8.358;2022-12-07T12:12:04;4.70;99.90
3896;DHT22;1963;48.804;8.358;2022-12-07T12:15:08;4.70;99.90
3896;DHT22;1963;48.804;8.358;2022-12-07T12:20:40;4.70;99.90
3896;DHT22;1963;48.804;8.358;2022-12-07T12:23:13;4.70;99.90
3896;DHT22;1963;48.804;8.358;2022-12-07T12:25:44;4.70;99.90
3896;DHT22;1963;48.804;8.358;2022-12-07T12:28:23;4.80;99.90
3896;DHT22;1963;48.804;8.358;2022-12-07T12:31:09;4.80;99.90
3896;DHT22;1963;48.804;8.358;2022-12-07T12:33:45;4.80;99.90
3896;DHT22;1963;48.804;8.358;2022-12-07T12:36:46;4.80;99.90
3896;DHT22;1963;48.804;8.358;2022-12-07T12:39:16;4.90;99.90
3896;DHT22;1963;48.804;8.358;2022-12-07T12:42:02;4.80;99.90
3896;DHT22;1963;48.804;8.358;2022-12-07T12:47:54;4.90;99.90
3896;DHT22;1963;48.804;8.358;2022-12-07T12:50:27;4.80;99.90
3896;DHT22;1963;48.804;8.358;2022-12-07T12:56:23;4.70;99.90
3896;DHT22;1963;48.804;8.358;2022-12-07T12:59:23;4.80;99.90
3896;DHT22;1963;48.804;8.358;2022-12-07T13:01:54;4.80;99.90
3896;DHT22;1963;48.804;8.358;2022-12-07T13:04:39;4.80;99.90
3896;DHT22;1963;48.804;8.358;2022-12-07T13:07:13;4.80;99.90
3896;DHT22;1963;48.804;8.358;2022-12-07T13:10:02;4.90;99.90
3896;DHT22;1963;48.804;8.358;2022-12-07T13:12:31;4.90;99.90
3896;DHT22;1963;48.804;8.358;2022-12-07T13:14:59;4.90;99.90
3896;DHT22;1963;48.804;8.358;2022-12-07T13:17:59;4.90;99.90
3896;DHT22;1963;48.804;8.358;2022-12-07T13:20:47;4.80;99.90
3896;DHT22;1963;48.804;8.358;2022-12-07T13:23:20;4.80;99.90
3896;DHT22;1963;48.804;8.358;2022-12-07T13:25:54;4.80;99.90
3896;DHT22;1963;48.804;8.358;2022-12-07T13:28:33;4.80;99.90
